Time;durP1;ratioP1;P1;durP2;ratioP2;P2;SDS_P1;SDS_P2;PMS_P1;PMS_P2;Temp;Humidity;BMP_temperature;BMP_pressure;BME280_temperature;BME280_humidity;BME280_pressure;Samples;Min_cycle;Max_cycle;Signal;HPM_P1;HPM_P2
2023/09/05 00:00:16;;;;;;;3.70;3.40;;;23.90;88.30;;;;;;5007361;28;20901;-93
2023/09/05 00:02:44;;;;;;;3.57;3.30;;;23.90;88.40;;;;;;5008259;28;20489;-92
2023/09/05 00:05:32;;;;;;;5.20;4.00;;;23.90;88.20;;;;;;5007119;28;20425;-95
2023/09/05 00:08:01;;;;;;;3.13;2.93;;;23.90;88.00;;;;;;4998780;28;20477;-94
2023/09/05 00:10:27;;;;;;;3.77;3.47;;;23.90;88.20;;;;;;4984736;28;20597;-92
2023/09/05 00:12:53;;;;;;;3.73;3.43;;;23.90;88.40;;;;;;4996912;28;20467;-92
2023/09/05 00:15:19;;;;;;;4.40;3.43;;;23.90;88.20;;;;;;5002073;28;21093;-94
2023/09/05 00:17:45;;;;;;;3.80;3.50;;;23.90;88.30;;;;;;5005310;28;20447;-94
2023/09/05 00:20:15;;;;;;;3.60;3.30;;;23.90;88.40;;;;;;5024676;28;20423;-93
2023/09/05 00:22:43;;;;;;;3.67;3.37;;;23.90;88.30;;;;;;5006254;28;20458;-94
2023/09/05 00:25:11;;;;;;;3.30;3.00;;;23.90;88.40;;;;;;4998972;28;20435;-93
2023/09/05 00:27:40;;;;;;;3.70;3.40;;;23.90;88.20;;;;;;5016674;28;20519;-93
2023/09/05 00:30:08;;;;;;;3.83;3.53;;;23.90;88.20;;;;;;4998399;28;20467;-93
2023/09/05 00:32:36;;;;;;;4.00;3.60;;;23.90;88.20;;;;;;5000977;28;20428;-91
2023/09/05 00:35:02;;;;;;;4.17;3.40;;;23.90;88.00;;;;;;5005135;28;20515;-95
2023/09/05 00:37:29;;;;;;;3.30;3.00;;;23.90;87.80;;;;;;5010929;28;20467;-94
2023/09/05 00:39:56;;;;;;;4.13;3.73;;;23.80;87.30;;;;;;5001159;28;20431;-91
2023/09/05 00:42:22;;;;;;;4.80;3.80;;;23.90;87.20;;;;;;5011171;28;20506;-94
2023/09/05 00:44:48;;;;;;;3.93;3.60;;;23.80;86.70;;;;;;5000155;28;20641;-94
2023/09/05 00:47:15;;;;;;;3.63;3.40;;;23.80;86.70;;;;;;4997325;28;20427;-93
2023/09/05 00:49:47;;;;;;;3.90;3.60;;;23.80;86.60;;;;;;5022177;28;20503;-93
2023/09/05 00:52:14;;;;;;;3.47;3.17;;;23.80;86.50;;;;;;5020262;28;20446;-94
2023/09/05 00:54:42;;;;;;;3.60;3.30;;;23.80;86.30;;;;;;5013494;28;20427;-94
2023/09/05 00:57:14;;;;;;;3.70;3.40;;;23.80;86.40;;;;;;5016546;28;20427;-95
2023/09/05 00:59:41;;;;;;;3.47;3.17;;;23.80;86.40;;;;;;5021749;28;20469;-92
2023/09/05 01:02:08;;;;;;;4.30;3.30;;;23.80;86.40;;;;;;5000690;28;20423;-93
2023/09/05 01:04:34;;;;;;;4.10;3.70;;;23.80;86.50;;;;;;5003311;28;20448;-93
2023/09/05 01:07:09;;;;;;;4.00;2.97;;;23.80;86.70;;;;;;5005587;28;20946;-93
2023/09/05 01:09:57;;;;;;;3.90;3.60;;;23.80;86.70;;;;;;5019679;28;20541;-91
2023/09/05 01:12:24;;;;;;;6.53;3.50;;;23.80;86.80;;;;;;5011949;28;20435;-94
2023/09/05 01:14:50;;;;;;;4.30;3.23;;;23.70;86.30;;;;;;5009023;28;21391;-92
2023/09/05 01:17:16;;;;;;;3.83;3.53;;;23.70;86.20;;;;;;5001073;28;20439;-94
2023/09/05 01:19:42;;;;;;;3.70;3.40;;;23.70;86.40;;;;;;4999935;28;20546;-93
2023/09/05 01:22:38;;;;;;;5.50;4.30;;;23.70;86.30;;;;;;4999997;28;20451;-91
2023/09/05 01:25:06;;;;;;;3.87;3.43;;;23.70;86.30;;;;;;4981658;28;20427;-90
2023/09/05 01:27:32;;;;;;;3.30;3.00;;;23.70;86.60;;;;;;5007168;28;20442;-93
2023/09/05 01:29:58;;;;;;;3.30;3.07;;;23.70;86.70;;;;;;5027294;28;20467;-92
2023/09/05 01:32:31;;;;;;;3.90;3.60;;;23.70;86.80;;;;;;4998562;28;20455;-92
2023/09/05 01:34:57;;;;;;;3.40;3.10;;;23.70;86.80;;;;;;5009044;28;20485;-92
2023/09/05 01:37:23;;;;;;;3.40;3.10;;;23.70;86.90;;;;;;5008025;28;20514;-92
2023/09/05 01:39:49;;;;;;;3.70;3.40;;;23.70;86.80;;;;;;5002848;28;20536;-92
2023/09/05 01:42:15;;;;;;;3.83;3.53;;;23.70;86.90;;;;;;5004261;28;20431;-92
2023/09/05 01:44:41;;;;;;;4.17;3.63;;;23.70;86.90;;;;;;5000195;28;20489;-94
2023/09/05 01:47:09;;;;;;;3.33;3.03;;;23.60;86.90;;;;;;5017175;28;20435;-91
2023/09/05 01:49:35;;;;;;;4.13;3.47;;;23.60;86.70;;;;;;5019610;28;20513;-93
2023/09/05 01:52:01;;;;;;;3.60;3.40;;;23.60;86.10;;;;;;5008296;28;20495;-96
2023/09/05 01:54:28;;;;;;;3.50;3.20;;;23.60;86.00;;;;;;5005840;28;20518;-93
2023/09/05 01:56:54;;;;;;;3.40;3.10;;;23.60;85.70;;;;;;5008232;28;21077;-95
2023/09/05 01:59:21;;;;;;;6.00;3.20;;;23.60;85.60;;;;;;5016583;28;20967;-91
2023/09/05 02:01:47;;;;;;;3.67;3.37;;;23.60;85.30;;;;;;5000808;28;20439;-93
2023/09/05 02:04:13;;;;;;;4.00;3.70;;;23.60;85.00;;;;;;5016370;28;20449;-93
2023/09/05 02:06:39;;;;;;;4.03;3.73;;;23.60;85.00;;;;;;5000424;28;20458;-90
2023/09/05 02:09:05;;;;;;;3.70;3.40;;;23.60;85.10;;;;;;5003354;28;20454;-93
2023/09/05 02:11:32;;;;;;;4.20;3.90;;;23.50;84.80;;;;;;5012661;28;20487;-92
2023/09/05 02:13:57;;;;;;;3.70;3.40;;;23.50;84.80;;;;;;5008174;28;20451;-91
2023/09/05 02:16:24;;;;;;;3.67;3.37;;;23.50;84.60;;;;;;5017120;28;20946;-93
2023/09/05 02:18:51;;;;;;;4.37;3.40;;;23.50;84.40;;;;;;5018675;28;20495;-93
2023/09/05 02:21:18;;;;;;;3.70;3.40;;;23.50;84.30;;;;;;5025093;28;20407;-95
2023/09/05 02:23:44;;;;;;;3.60;3.30;;;23.50;84.00;;;;;;5026608;28;20422;-93
2023/09/05 02:26:14;;;;;;;4.47;4.17;;;23.50;84.00;;;;;;5009553;28;20447;-95
2023/09/05 02:28:40;;;;;;;3.50;3.30;;;23.50;84.00;;;;;;5021822;28;20431;-93
2023/09/05 02:31:09;;;;;;;3.67;3.47;;;23.50;84.00;;;;;;5004348;28;20435;-96
2023/09/05 02:33:36;;;;;;;4.27;3.87;;;23.50;83.90;;;;;;5020256;28;20522;-93
2023/09/05 02:36:08;;;;;;;3.70;3.40;;;23.50;84.10;;;;;;5008664;28;20823;-96
2023/09/05 02:38:35;;;;;;;4.73;4.33;;;23.50;84.20;;;;;;4985236;28;20784;-93
2023/09/05 02:41:01;;;;;;;3.33;3.13;;;23.50;84.20;;;;;;5003793;28;20434;-96
2023/09/05 02:43:27;;;;;;;3.90;3.60;;;23.50;84.10;;;;;;5018321;28;20867;-93
2023/09/05 02:45:53;;;;;;;4.17;3.87;;;23.40;84.00;;;;;;5020219;28;20530;-94
2023/09/05 02:48:20;;;;;;;4.20;3.30;;;23.40;83.90;;;;;;5036782;28;20816;-93
2023/09/05 02:50:58;;;;;;;3.90;3.60;;;23.40;83.80;;;;;;5003577;28;20436;-96
2023/09/05 02:53:24;;;;;;;4.30;3.63;;;23.40;83.80;;;;;;5019880;28;20457;-93
2023/09/05 02:55:50;;;;;;;4.40;4.00;;;23.40;83.80;;;;;;4976595;28;20428;-94
2023/09/05 02:58:16;;;;;;;4.07;3.77;;;23.40;83.70;;;;;;4978238;28;20471;-93
2023/09/05 03:00:42;;;;;;;4.90;3.50;;;23.40;83.70;;;;;;5000717;28;20459;-93
2023/09/05 03:03:08;;;;;;;3.40;3.20;;;23.40;83.80;;;;;;5003653;28;20173;-94
2023/09/05 03:05:34;;;;;;;3.90;3.63;;;23.40;83.90;;;;;;5003681;28;20435;-95
2023/09/05 03:08:01;;;;;;;3.70;3.40;;;23.40;83.80;;;;;;5003399;28;20467;-93
2023/09/05 03:10:27;;;;;;;5.33;3.87;;;23.40;83.70;;;;;;4987023;28;20441;-95
2023/09/05 03:12:53;;;;;;;3.63;3.43;;;23.40;83.80;;;;;;5003241;28;20420;-93
2023/09/05 03:15:20;;;;;;;4.00;3.70;;;23.40;83.80;;;;;;5003423;28;20434;-91
2023/09/05 03:17:47;;;;;;;4.27;3.90;;;23.40;84.00;;;;;;5019665;28;20514;-94
2023/09/05 03:20:15;;;;;;;3.50;3.30;;;23.40;84.00;;;;;;5003135;28;20463;-93
2023/09/05 03:22:41;;;;;;;3.90;3.50;;;23.40;84.00;;;;;;4983451;28;20442;-94
2023/09/05 03:25:08;;;;;;;4.43;4.07;;;23.30;84.00;;;;;;4983607;28;20480;-95
2023/09/05 03:27:34;;;;;;;3.77;3.47;;;23.30;84.10;;;;;;4999795;28;20456;-93
2023/09/05 03:30:00;;;;;;;4.20;3.90;;;23.30;84.40;;;;;;5000438;28;20450;-95
2023/09/05 03:32:26;;;;;;;3.83;3.30;;;23.30;84.50;;;;;;4972421;28;20443;-94
2023/09/05 03:34:52;;;;;;;3.90;3.60;;;23.30;84.50;;;;;;4983964;28;20444;-95
2023/09/05 03:37:19;;;;;;;4.23;3.90;;;23.30;84.60;;;;;;5003747;28;20423;-93
2023/09/05 03:39:45;;;;;;;3.80;3.50;;;23.30;84.50;;;;;;5002482;28;20532;-92
2023/09/05 03:42:11;;;;;;;3.70;3.50;;;23.30;84.50;;;;;;4986866;28;20432;-94
2023/09/05 03:44:37;;;;;;;4.10;3.80;;;23.30;84.50;;;;;;5003446;28;20438;-94
2023/09/05 03:47:03;;;;;;;4.37;3.97;;;23.30;84.50;;;;;;5019591;28;21254;-93
2023/09/05 03:49:29;;;;;;;3.70;3.50;;;23.30;84.50;;;;;;5003077;28;20977;-91
2023/09/05 03:51:57;;;;;;;3.83;3.53;;;23.30;84.60;;;;;;4987107;28;20427;-93
2023/09/05 03:54:23;;;;;;;3.80;3.50;;;23.30;84.70;;;;;;5018920;28;20504;-93
2023/09/05 03:56:49;;;;;;;3.90;3.60;;;23.20;84.70;;;;;;5002997;28;20431;-94
2023/09/05 03:59:15;;;;;;;3.13;2.93;;;23.20;84.70;;;;;;5002068;28;20471;-95
2023/09/05 04:01:41;;;;;;;3.83;3.53;;;23.20;84.70;;;;;;5018403;28;20455;-93
2023/09/05 04:04:08;;;;;;;3.73;3.40;;;23.20;84.70;;;;;;5018339;28;20584;-94
2023/09/05 04:06:36;;;;;;;3.70;3.40;;;23.20;84.70;;;;;;4986784;28;20509;-94
2023/09/05 04:09:02;;;;;;;3.73;3.47;;;23.20;84.70;;;;;;5035784;28;20411;-93
2023/09/05 04:11:28;;;;;;;3.40;3.20;;;23.20;84.90;;;;;;5018608;28;20431;-94
2023/09/05 04:13:54;;;;;;;3.77;3.47;;;23.20;84.90;;;;;;5002291;28;20451;-91
2023/09/05 04:16:20;;;;;;;4.50;4.10;;;23.20;85.00;;;;;;5019066;28;20188;-93
2023/09/05 04:18:46;;;;;;;4.17;3.80;;;23.20;85.10;;;;;;5002039;28;20470;-94
2023/09/05 04:21:12;;;;;;;3.60;3.30;;;23.20;85.20;;;;;;5018706;28;20184;-93
2023/09/05 04:23:38;;;;;;;4.37;3.97;;;23.20;85.20;;;;;;5018209;28;20447;-94
2023/09/05 04:26:04;;;;;;;3.93;3.53;;;23.20;85.40;;;;;;5002705;28;20427;-93
2023/09/05 04:28:30;;;;;;;4.40;3.70;;;23.10;85.40;;;;;;5002883;28;20424;-94
2023/09/05 04:31:01;;;;;;;4.40;4.10;;;23.10;85.50;;;;;;5019912;28;20451;-95
2023/09/05 04:33:31;;;;;;;5.47;3.80;;;23.10;85.60;;;;;;5007253;28;20462;-95
2023/09/05 04:35:57;;;;;;;3.90;3.60;;;23.10;85.50;;;;;;5006302;28;20436;-93
2023/09/05 04:38:23;;;;;;;3.60;3.30;;;23.10;85.60;;;;;;5020110;28;20463;-94
2023/09/05 04:40:49;;;;;;;3.97;3.67;;;23.10;85.60;;;;;;5022434;28;20440;-93
2023/09/05 04:43:15;;;;;;;4.23;3.83;;;23.10;85.70;;;;;;5023374;28;20416;-93
2023/09/05 04:45:41;;;;;;;4.07;3.63;;;23.10;85.70;;;;;;5022894;28;20434;-94
2023/09/05 04:48:07;;;;;;;4.27;3.97;;;23.10;85.80;;;;;;4997119;28;20432;-94
2023/09/05 04:50:33;;;;;;;3.63;3.43;;;23.10;85.80;;;;;;4987505;28;20451;-93
2023/09/05 04:52:59;;;;;;;3.77;3.47;;;23.00;85.70;;;;;;4995382;28;20455;-88
2023/09/05 04:55:25;;;;;;;4.10;3.80;;;23.00;85.80;;;;;;4991902;28;20439;-94
2023/09/05 04:57:51;;;;;;;4.10;3.70;;;23.00;85.90;;;;;;4985777;28;20531;-95
2023/09/05 05:00:18;;;;;;;3.97;3.67;;;23.00;85.90;;;;;;4985882;28;20456;-95
2023/09/05 05:03:16;;;;;;;4.13;3.83;;;23.00;86.00;;;;;;5003049;28;20425;-94
2023/09/05 05:05:43;;;;;;;4.07;3.77;;;23.00;86.00;;;;;;4992105;28;20920;-95
2023/09/05 05:08:09;;;;;;;3.90;3.60;;;23.00;86.10;;;;;;5001623;28;20419;-94
2023/09/05 05:10:38;;;;;;;4.13;3.83;;;23.00;86.20;;;;;;5001011;28;20815;-92
2023/09/05 05:13:04;;;;;;;3.53;3.33;;;22.90;86.10;;;;;;4984187;28;20451;-93
2023/09/05 05:15:30;;;;;;;4.50;4.07;;;22.90;86.10;;;;;;5017005;28;20433;-94
2023/09/05 05:17:56;;;;;;;4.27;3.90;;;22.90;86.20;;;;;;5001022;28;20435;-95
2023/09/05 05:20:27;;;;;;;3.70;3.40;;;22.90;86.20;;;;;;5001686;28;20737;-96
2023/09/05 05:22:56;;;;;;;4.40;4.00;;;22.90;86.20;;;;;;5000860;28;20532;-94
2023/09/05 05:25:24;;;;;;;3.40;3.10;;;22.90;86.30;;;;;;5018382;23;20557;-74
2023/09/05 05:27:52;;;;;;;3.73;3.43;;;22.90;86.40;;;;;;4999940;28;20459;-73
2023/09/05 05:30:19;;;;;;;4.80;3.93;;;22.90;86.40;;;;;;4991445;28;20422;-73
2023/09/05 05:32:47;;;;;;;4.37;3.97;;;22.90;86.40;;;;;;5021206;28;21007;-73
2023/09/05 05:35:14;;;;;;;4.30;3.90;;;22.80;86.20;;;;;;5002525;28;20458;-73
2023/09/05 05:37:39;;;;;;;4.10;3.70;;;22.80;86.30;;;;;;4974199;28;20452;-73
2023/09/05 05:40:07;;;;;;;5.10;4.70;;;22.90;86.60;;;;;;5011045;28;20967;-74
2023/09/05 05:42:35;;;;;;;4.40;4.00;;;22.80;86.70;;;;;;5001659;28;20511;-74
2023/09/05 05:45:02;;;;;;;6.00;3.80;;;22.80;86.80;;;;;;4987282;28;20999;-73
2023/09/05 05:47:31;;;;;;;4.27;3.87;;;22.80;86.80;;;;;;4993331;28;20589;-73
2023/09/05 05:49:57;;;;;;;4.70;4.33;;;22.70;86.60;;;;;;5012994;28;20439;-73
2023/09/05 05:52:26;;;;;;;3.90;3.60;;;22.70;86.60;;;;;;5005420;28;20957;-73
2023/09/05 05:54:54;;;;;;;3.80;3.50;;;22.70;86.70;;;;;;4994536;28;20819;-73
2023/09/05 05:57:20;;;;;;;4.50;4.10;;;22.70;86.80;;;;;;5004994;28;20462;-73
2023/09/05 05:59:51;;;;;;;4.03;3.63;;;22.70;86.80;;;;;;5005159;28;20563;-73
2023/09/05 06:02:16;;;;;;;4.43;4.03;;;22.70;86.80;;;;;;4988567;28;20464;-73
2023/09/05 06:04:45;;;;;;;4.33;3.77;;;22.70;86.90;;;;;;5008307;28;20643;-73
2023/09/05 06:07:11;;;;;;;4.00;3.70;;;22.70;86.90;;;;;;4974424;28;20455;-73
2023/09/05 06:09:42;;;;;;;4.57;4.17;;;22.70;87.00;;;;;;5006861;28;20446;-73
2023/09/05 06:12:08;;;;;;;4.47;3.43;;;22.70;87.10;;;;;;5006891;28;20223;-73
2023/09/05 06:14:36;;;;;;;5.13;4.67;;;22.70;87.20;;;;;;5025371;28;20419;-73
2023/09/05 06:17:05;;;;;;;4.30;3.60;;;22.70;87.20;;;;;;4992411;28;20555;-73
2023/09/05 06:19:31;;;;;;;4.20;3.83;;;22.70;87.30;;;;;;5012241;28;20463;-73
2023/09/05 06:21:58;;;;;;;4.67;3.83;;;22.70;87.40;;;;;;5004375;28;20802;-74
2023/09/05 06:24:26;;;;;;;4.80;3.73;;;22.70;87.40;;;;;;5003726;28;20205;-73
2023/09/05 06:26:54;;;;;;;4.13;3.80;;;22.60;87.30;;;;;;5001191;28;20467;-73
2023/09/05 06:29:21;;;;;;;4.50;4.10;;;22.70;87.60;;;;;;4970999;28;20567;-73
2023/09/05 06:31:48;;;;;;;4.40;4.00;;;22.70;87.60;;;;;;5003010;28;20434;-73
2023/09/05 06:34:17;;;;;;;3.80;3.50;;;22.60;87.50;;;;;;4986834;28;20436;-73
2023/09/05 06:36:45;;;;;;;4.13;3.50;;;22.70;87.60;;;;;;5021615;28;20435;-73
2023/09/05 06:39:11;;;;;;;9.80;4.20;;;22.60;87.60;;;;;;5006313;28;20454;-73
2023/09/05 06:41:39;;;;;;;4.70;4.07;;;22.60;87.60;;;;;;5006111;28;20583;-73
2023/09/05 06:44:05;;;;;;;4.10;3.80;;;22.70;87.80;;;;;;4989336;28;20468;-73
2023/09/05 06:46:35;;;;;;;4.20;3.90;;;22.60;87.60;;;;;;5024050;28;20430;-73
2023/09/05 06:49:06;;;;;;;5.00;4.37;;;22.60;87.60;;;;;;5005603;28;20484;-73
2023/09/05 06:51:57;;;;;;;4.83;3.83;;;22.60;87.60;;;;;;5023717;28;20983;-73
2023/09/05 06:54:23;;;;;;;5.00;4.60;;;22.60;87.50;;;;;;5005436;28;20462;-73
2023/09/05 06:56:49;;;;;;;4.17;3.80;;;22.60;87.60;;;;;;5005652;28;20831;-73
2023/09/05 06:59:18;;;;;;;4.00;3.70;;;22.60;87.60;;;;;;4989109;28;20529;-73
2023/09/05 07:01:44;;;;;;;4.40;4.00;;;22.60;87.50;;;;;;5005767;28;20500;-73
2023/09/05 07:04:14;;;;;;;3.93;3.63;;;22.60;87.30;;;;;;5023321;28;20423;-73
2023/09/05 07:06:40;;;;;;;3.93;3.63;;;22.70;87.60;;;;;;4989085;28;20535;-73
2023/09/05 07:09:09;;;;;;;4.63;4.00;;;22.70;87.50;;;;;;4989748;28;20427;-73
2023/09/05 07:11:34;;;;;;;4.30;3.90;;;22.70;87.50;;;;;;5005510;28;20438;-73
2023/09/05 07:14:00;;;;;;;3.70;3.40;;;22.70;87.50;;;;;;5005451;28;20944;-73
2023/09/05 07:16:29;;;;;;;4.30;4.00;;;22.70;87.40;;;;;;5023637;28;20435;-73
2023/09/05 07:18:57;;;;;;;3.83;3.63;;;22.70;87.40;;;;;;4991197;28;20987;-73
2023/09/05 07:21:25;;;;;;;3.97;3.67;;;22.70;87.40;;;;;;5023492;28;20412;-73
2023/09/05 07:23:54;;;;;;;4.53;4.13;;;22.70;87.20;;;;;;5022913;28;20802;-73
2023/09/05 07:26:23;;;;;;;3.90;3.60;;;22.70;87.20;;;;;;5004701;28;20538;-73
2023/09/05 07:28:52;;;;;;;4.20;3.90;;;22.70;87.10;;;;;;5005668;28;21008;-73
2023/09/05 07:31:22;;;;;;;3.93;3.63;;;22.70;87.20;;;;;;5005449;28;20427;-73
2023/09/05 07:33:50;;;;;;;3.97;3.30;;;22.70;87.00;;;;;;5005451;28;20462;-73
2023/09/05 07:36:16;;;;;;;4.13;3.83;;;22.70;86.90;;;;;;5006034;28;20430;-73
2023/09/05 07:38:42;;;;;;;4.20;3.80;;;22.70;86.80;;;;;;5005315;28;20467;-73
2023/09/05 07:41:09;;;;;;;4.07;3.77;;;22.70;87.00;;;;;;5022419;28;20908;-73
2023/09/05 07:43:35;;;;;;;4.00;3.70;;;22.70;86.80;;;;;;5004635;28;20458;-73
2023/09/05 07:46:01;;;;;;;3.80;3.60;;;22.70;86.80;;;;;;5002949;28;20439;-73
2023/09/05 07:48:27;;;;;;;4.00;3.70;;;22.70;86.50;;;;;;5005047;28;20780;-73
2023/09/05 07:51:05;;;;;;;4.90;4.27;;;22.70;86.80;;;;;;5022751;28;20496;-73
2023/09/05 07:53:34;;;;;;;4.23;3.83;;;22.70;86.60;;;;;;5004712;28;20978;-73
2023/09/05 07:56:05;;;;;;;4.63;4.33;;;22.70;86.30;;;;;;5020888;28;20430;-73
2023/09/05 07:58:31;;;;;;;4.60;4.20;;;22.70;86.40;;;;;;5022846;28;20987;-73
2023/09/05 08:00:57;;;;;;;4.30;3.93;;;22.70;86.40;;;;;;5004748;28;20448;-73
2023/09/05 08:03:26;;;;;;;4.30;4.00;;;22.70;86.40;;;;;;5004816;28;20461;-73
2023/09/05 08:05:54;;;;;;;4.30;3.90;;;22.70;86.30;;;;;;5003710;28;20431;-73
2023/09/05 08:08:21;;;;;;;4.30;4.00;;;22.70;86.20;;;;;;4972224;28;20455;-73
2023/09/05 08:10:47;;;;;;;4.13;3.83;;;22.70;86.30;;;;;;5004834;28;20494;-73
2023/09/05 08:13:18;;;;;;;4.87;4.37;;;22.70;86.30;;;;;;5004315;28;20436;-73
2023/09/05 08:15:47;;;;;;;4.63;4.23;;;22.70;86.20;;;;;;4998623;23;20509;-71
2023/09/05 08:18:13;;;;;;;4.43;4.03;;;22.80;86.30;;;;;;4993403;28;20484;-72
2023/09/05 08:20:44;;;;;;;4.47;4.07;;;22.70;86.10;;;;;;4983838;28;20831;-72
2023/09/05 08:23:15;;;;;;;4.60;4.20;;;22.80;86.20;;;;;;4982486;28;20433;-72
2023/09/05 08:25:51;;;;;;;4.97;4.57;;;22.80;86.10;;;;;;4984468;28;20393;-72
2023/09/05 08:28:20;;;;;;;4.57;4.17;;;22.80;86.10;;;;;;4983322;28;20491;-73
2023/09/05 08:30:46;;;;;;;5.43;5.03;;;22.80;86.10;;;;;;4985121;28;20401;-72
2023/09/05 08:33:14;;;;;;;4.73;4.43;;;22.80;86.10;;;;;;4985700;28;20896;-72
2023/09/05 08:35:44;;;;;;;4.80;4.20;;;22.80;86.10;;;;;;5002247;28;20708;-73
2023/09/05 08:38:13;;;;;;;4.90;4.40;;;22.80;86.20;;;;;;5003607;28;20546;-72
2023/09/05 08:40:46;;;;;;;4.57;4.20;;;22.80;86.20;;;;;;4986086;28;20458;-72
2023/09/05 08:43:16;;;;;;;4.43;4.03;;;22.90;86.60;;;;;;5001902;28;20558;-72
2023/09/05 08:45:48;;;;;;;4.50;4.10;;;22.90;86.70;;;;;;5003084;28;20404;-72
2023/09/05 08:48:16;;;;;;;4.37;4.07;;;22.90;86.90;;;;;;5001785;28;20443;-73
2023/09/05 08:50:45;;;;;;;4.30;3.90;;;22.90;86.90;;;;;;5001505;28;20797;-72
2023/09/05 08:53:15;;;;;;;4.50;4.20;;;22.90;87.00;;;;;;5003060;28;20408;-72
2023/09/05 08:55:45;;;;;;;4.40;4.00;;;23.00;87.10;;;;;;4985381;28;20475;-73
2023/09/05 08:58:15;;;;;;;6.10;4.20;;;23.00;87.00;;;;;;5002831;28;20472;-73
2023/09/05 09:00:46;;;;;;;4.20;3.90;;;23.00;87.20;;;;;;5001555;28;20977;-72
2023/09/05 09:03:13;;;;;;;4.20;3.90;;;23.00;87.20;;;;;;5000898;28;20447;-72
2023/09/05 09:05:41;;;;;;;4.10;3.80;;;23.00;87.20;;;;;;5003005;28;20522;-71
2023/09/05 09:08:09;;;;;;;4.13;3.83;;;23.10;87.10;;;;;;5001868;28;21300;-72
2023/09/05 09:10:41;;;;;;;4.33;4.03;;;23.10;87.20;;;;;;5002319;28;20448;-72
2023/09/05 09:13:14;;;;;;;4.17;3.87;;;23.10;87.20;;;;;;5002524;28;20424;-71
2023/09/05 09:15:43;;;;;;;4.60;4.13;;;23.20;87.50;;;;;;5002851;28;20440;-72
2023/09/05 09:18:20;;;;;;;4.50;4.20;;;23.20;87.50;;;;;;5004078;28;20479;-71
2023/09/05 09:20:52;;;;;;;3.83;3.57;;;23.20;87.50;;;;;;5003495;28;20436;-72
2023/09/05 09:23:30;;;;;;;4.60;4.30;;;23.20;87.60;;;;;;5001565;28;20448;-72
2023/09/05 09:25:59;;;;;;;4.70;4.40;;;23.20;87.40;;;;;;5002627;28;21083;-72
2023/09/05 09:28:34;;;;;;;4.33;3.83;;;23.30;87.40;;;;;;5002785;28;20964;-72
2023/09/05 09:31:11;;;;;;;4.50;4.10;;;23.30;87.30;;;;;;4985178;28;20937;-72
2023/09/05 09:33:37;;;;;;;4.33;4.03;;;23.30;87.10;;;;;;5003226;28;20411;-73
2023/09/05 09:36:04;;;;;;;4.60;4.30;;;23.40;87.10;;;;;;5003103;28;20519;-73
2023/09/05 09:38:33;;;;;;;4.20;3.90;;;23.40;87.00;;;;;;5000874;28;21045;-72
2023/09/05 09:41:01;;;;;;;3.83;3.53;;;23.40;86.90;;;;;;4985201;28;20420;-72
2023/09/05 09:43:31;;;;;;;4.87;4.47;;;23.50;87.10;;;;;;5001441;28;20769;-72
2023/09/05 09:45:59;;;;;;;4.33;4.00;;;23.50;87.00;;;;;;5001489;28;20420;-72
2023/09/05 09:48:27;;;;;;;4.60;4.30;;;23.50;86.90;;;;;;5001340;28;20471;-72
2023/09/05 09:51:00;;;;;;;4.40;4.00;;;23.60;86.90;;;;;;5000882;28;20492;-72
2023/09/05 09:53:39;;;;;;;3.83;3.53;;;23.60;87.00;;;;;;5001105;28;20439;-72
2023/09/05 09:56:14;;;;;;;4.17;3.87;;;23.70;87.10;;;;;;4985068;28;21043;-72
2023/09/05 09:58:50;;;;;;;4.00;3.70;;;23.70;87.20;;;;;;5002263;28;21048;-72
2023/09/05 10:01:17;;;;;;;3.87;3.57;;;23.70;87.10;;;;;;5001548;28;20424;-71
2023/09/05 10:03:45;;;;;;;4.13;3.83;;;23.70;87.00;;;;;;5002423;28;20437;-72
2023/09/05 10:06:13;;;;;;;3.87;3.57;;;23.80;86.90;;;;;;5018240;28;20456;-71
2023/09/05 10:08:40;;;;;;;4.30;3.90;;;23.80;87.10;;;;;;5002620;28;20948;-72
2023/09/05 10:11:13;;;;;;;3.50;3.30;;;23.80;87.10;;;;;;5001530;28;20930;-71
2023/09/05 10:13:41;;;;;;;3.73;3.47;;;23.90;87.20;;;;;;4985024;28;20467;-72
2023/09/05 10:16:08;;;;;;;3.90;3.60;;;23.90;87.30;;;;;;5002510;28;20793;-72
2023/09/05 10:18:38;;;;;;;3.93;3.63;;;23.90;87.30;;;;;;5017551;28;20483;-72
2023/09/05 10:21:08;;;;;;;4.07;3.77;;;23.90;87.20;;;;;;4985450;28;20428;-72
2023/09/05 10:23:37;;;;;;;4.73;3.50;;;24.00;87.30;;;;;;4984905;28;20420;-73
2023/09/05 10:26:04;;;;;;;4.20;3.90;;;24.00;87.30;;;;;;5017055;28;20870;-72
2023/09/05 10:28:34;;;;;;;5.00;4.10;;;24.00;87.30;;;;;;5000599;28;20444;-71
2023/09/05 10:31:12;;;;;;;5.90;4.00;;;24.10;87.60;;;;;;4987944;28;20529;-72
2023/09/05 10:33:47;;;;;;;3.90;3.60;;;24.10;87.70;;;;;;4988710;28;20522;-71
2023/09/05 10:36:46;;;;;;;4.00;3.43;;;24.10;87.60;;;;;;5004599;28;20436;-72
2023/09/05 10:39:32;;;;;;;4.30;3.90;;;24.20;87.80;;;;;;5005655;28;20447;-72
2023/09/05 10:42:01;;;;;;;4.57;4.17;;;24.20;87.90;;;;;;5004475;28;20976;-72
2023/09/05 10:44:30;;;;;;;3.87;3.57;;;24.20;87.90;;;;;;5005661;28;20924;-73
2023/09/05 10:47:26;;;;;;;3.87;3.60;;;24.30;88.00;;;;;;4987686;28;21182;-73
2023/09/05 10:50:08;;;;;;;3.30;3.10;;;24.30;88.00;;;;;;4989048;28;20435;-72
2023/09/05 10:52:37;;;;;;;3.83;3.53;;;24.30;87.90;;;;;;5005616;28;20491;-73
2023/09/05 10:55:29;;;;;;;3.43;3.17;;;24.40;88.00;;;;;;4987787;28;20469;-72
2023/09/05 10:57:59;;;;;;;3.60;3.40;;;24.40;87.90;;;;;;5003579;28;20450;-72
2023/09/05 11:00:38;;;;;;;3.40;3.20;;;24.50;88.00;;;;;;4986969;28;20428;-73
2023/09/05 11:03:19;;;;;;;3.20;3.00;;;24.50;87.90;;;;;;5003150;28;20832;-71
2023/09/05 11:05:45;;;;;;;4.30;4.00;;;24.50;87.70;;;;;;4987047;28;20440;-71
2023/09/05 11:08:23;;;;;;;3.83;3.53;;;24.50;87.60;;;;;;5003558;28;20459;-72
2023/09/05 11:10:55;;;;;;;3.77;3.40;;;24.60;87.70;;;;;;5003513;28;20480;-72
2023/09/05 11:13:21;;;;;;;4.00;3.60;;;24.60;87.80;;;;;;5005139;28;20873;-72
2023/09/05 11:15:47;;;;;;;3.67;3.37;;;24.70;87.70;;;;;;4987255;28;20561;-72
2023/09/05 11:18:19;;;;;;;4.40;4.10;;;24.70;87.50;;;;;;5005266;28;20518;-72
2023/09/05 11:20:48;;;;;;;4.77;4.10;;;24.70;87.30;;;;;;4987121;28;20984;-73
2023/09/05 11:23:17;;;;;;;4.40;4.10;;;24.70;87.10;;;;;;4987352;28;20417;-72
2023/09/05 11:26:00;;;;;;;3.63;3.33;;;24.80;87.30;;;;;;4983134;28;20429;-72
2023/09/05 11:28:29;;;;;;;3.50;3.20;;;24.80;87.30;;;;;;4965976;28;20962;-72
2023/09/05 11:30:59;;;;;;;3.37;3.17;;;24.90;87.70;;;;;;4965844;28;21044;-72
2023/09/05 11:33:26;;;;;;;4.23;3.93;;;24.90;87.60;;;;;;5003489;28;20423;-73
2023/09/05 11:35:57;;;;;;;3.70;3.50;;;24.90;87.50;;;;;;5004606;28;20436;-73
2023/09/05 11:38:26;;;;;;;3.20;2.90;;;24.90;87.40;;;;;;5004666;28;20492;-72
2023/09/05 11:40:57;;;;;;;3.40;3.20;;;25.00;87.30;;;;;;5020215;28;20846;-72
2023/09/05 11:43:29;;;;;;;3.80;3.50;;;25.00;87.10;;;;;;4995216;28;20452;-72
2023/09/05 11:45:59;;;;;;;3.87;3.50;;;25.10;87.30;;;;;;4983601;28;20477;-72
2023/09/05 11:48:31;;;;;;;3.63;3.30;;;25.10;87.10;;;;;;4967022;28;20453;-72
2023/09/05 11:50:57;;;;;;;3.47;3.27;;;25.10;87.10;;;;;;4982825;28;20426;-72
2023/09/05 11:53:24;;;;;;;3.67;3.47;;;25.10;87.00;;;;;;4982871;28;20927;-72
2023/09/05 11:55:53;;;;;;;3.37;3.17;;;25.20;87.10;;;;;;4998553;28;20485;-72
2023/09/05 11:58:19;;;;;;;3.70;3.30;;;25.20;87.10;;;;;;4982715;28;20475;-72
2023/09/05 12:00:50;;;;;;;3.80;3.50;;;25.20;87.10;;;;;;4999062;28;20954;-72
2023/09/05 12:03:22;;;;;;;3.50;3.30;;;25.30;88.00;;;;;;4982504;28;20499;-73
2023/09/05 12:05:53;;;;;;;3.10;2.90;;;25.30;87.20;;;;;;4982925;28;20437;-73
2023/09/05 12:08:21;;;;;;;3.17;2.90;;;25.30;86.90;;;;;;4982056;28;21087;-72
2023/09/05 12:10:52;;;;;;;3.87;3.50;;;25.40;86.80;;;;;;4981988;28;20953;-72
2023/09/05 12:13:18;;;;;;;3.70;3.40;;;25.40;86.60;;;;;;4982206;28;20452;-72
2023/09/05 12:15:46;;;;;;;3.47;3.27;;;25.40;86.40;;;;;;4983740;28;21224;-72
2023/09/05 12:18:27;;;;;;;4.47;3.40;;;25.40;86.20;;;;;;4965803;28;21127;-72
2023/09/05 12:21:02;;;;;;;3.33;3.03;;;25.50;86.20;;;;;;4983595;28;20401;-72
2023/09/05 12:23:31;;;;;;;3.23;3.03;;;25.50;86.20;;;;;;4982049;28;20492;-72
2023/09/05 12:26:02;;;;;;;3.90;3.70;;;25.50;86.20;;;;;;4983812;28;20398;-72
2023/09/05 12:28:30;;;;;;;3.40;3.20;;;25.60;86.10;;;;;;4982438;28;20585;-72
2023/09/05 12:31:06;;;;;;;3.60;3.37;;;25.60;85.80;;;;;;4982010;28;20401;-72
2023/09/05 12:33:35;;;;;;;3.40;3.10;;;25.60;85.80;;;;;;4981883;28;20917;-72
2023/09/05 12:36:03;;;;;;;2.70;2.50;;;25.70;85.90;;;;;;4965633;28;20423;-72
2023/09/05 12:38:32;;;;;;;2.93;2.70;;;25.70;85.80;;;;;;4997314;28;20483;-72
2023/09/05 12:40:58;;;;;;;2.80;2.60;;;25.70;85.80;;;;;;4983316;28;20484;-72
2023/09/05 12:43:24;;;;;;;4.07;3.33;;;25.70;85.70;;;;;;4991457;28;20540;-72
2023/09/05 12:45:52;;;;;;;3.40;2.63;;;25.70;85.60;;;;;;5002549;28;20448;-72
2023/09/05 12:48:21;;;;;;;3.20;2.90;;;25.80;85.70;;;;;;5001074;28;20489;-72
2023/09/05 12:50:49;;;;;;;3.20;3.00;;;25.80;85.70;;;;;;4985126;28;20800;-72
2023/09/05 12:53:17;;;;;;;3.10;2.80;;;25.80;85.80;;;;;;5002414;28;20165;-72
2023/09/05 12:55:43;;;;;;;2.87;2.67;;;25.90;85.90;;;;;;4985458;28;20448;-72